Time;durP1;ratioP1;P1;durP2;ratioP2;P2;SDS_P1;SDS_P2;PMS_P1;PMS_P2;Temp;Humidity;BMP_temperature;BMP_pressure;BME280_temperature;BME280_humidity;BME280_pressure;Samples;Min_cycle;Max_cycle;Signal;HPM_P1;HPM_P2
2022/09/07 00:01:06;;;;;;;7.45;5.05;;;;;;;11.84;62.86;100489.05;2190799;80;21045;-72
2022/09/07 00:04:08;;;;;;;13.00;4.87;;;;;;;11.80;62.97;100484.25;2188914;80;21089;-73
2022/09/07 00:07:09;;;;;;;12.37;5.00;;;;;;;11.74;63.05;100483.55;2191137;79;21066;-71
2022/09/07 00:10:11;;;;;;;8.03;4.65;;;;;;;11.67;63.04;100480.23;2188285;80;21489;-77
2022/09/07 00:13:13;;;;;;;8.35;4.78;;;;;;;11.66;63.15;100475.09;2184715;79;21027;-74
2022/09/07 00:16:19;;;;;;;10.25;5.15;;;;;;;11.63;63.40;100470.11;2187496;79;21414;-71
2022/09/07 00:19:21;;;;;;;11.03;4.58;;;;;;;11.57;63.32;100462.30;2190838;80;21078;-72
2022/09/07 00:22:23;;;;;;;9.10;5.80;;;;;;;11.57;63.48;100466.76;2193868;80;20963;-72
2022/09/07 00:25:24;;;;;;;9.88;5.20;;;;;;;11.52;63.80;100467.27;2180229;80;20938;-71
2022/09/07 00:28:26;;;;;;;10.20;4.80;;;;;;;11.42;63.79;100462.59;2181225;80;20958;-73
2022/09/07 00:31:29;;;;;;;8.55;4.85;;;;;;;11.39;64.04;100471.72;2163511;80;21012;-72
2022/09/07 00:34:30;;;;;;;8.30;5.08;;;;;;;11.34;64.13;100473.20;2182732;80;21065;-72
2022/09/07 00:37:32;;;;;;;10.28;5.30;;;;;;;11.29;64.37;100472.86;2165063;80;21019;-71
2022/09/07 00:40:34;;;;;;;9.95;5.05;;;;;;;11.24;64.61;100470.71;2192018;80;21044;-71
2022/09/07 00:43:40;;;;;;;8.30;5.03;;;;;;;11.21;64.80;100469.20;2183772;80;21038;-72
2022/09/07 00:46:42;;;;;;;9.55;5.10;;;;;;;11.24;64.97;100465.91;2183119;80;21023;-71
2022/09/07 00:49:47;;;;;;;8.25;4.78;;;;;;;11.24;64.89;100469.88;2189825;80;21106;-75
2022/09/07 00:52:54;;;;;;;8.83;4.17;;;;;;;11.27;65.24;100472.22;2193585;80;21120;-72
2022/09/07 00:55:59;;;;;;;8.63;4.03;;;;;;;11.28;65.15;100469.88;2184750;80;20983;-71
2022/09/07 00:59:01;;;;;;;6.10;3.62;;;;;;;11.21;65.63;100461.23;2186639;79;21086;-73
2022/09/07 01:02:03;;;;;;;9.20;5.17;;;;;;;11.28;65.39;100461.91;2193949;80;21446;-73
2022/09/07 01:05:19;;;;;;;9.83;4.65;;;;;;;11.30;65.21;100464.73;2189170;80;20970;-74
2022/09/07 01:08:22;;;;;;;11.12;4.83;;;;;;;11.32;65.20;100464.56;2192462;80;21086;-73
2022/09/07 01:11:24;;;;;;;10.85;4.53;;;;;;;11.32;65.13;100461.91;2193247;79;21521;-71
2022/09/07 01:14:33;;;;;;;9.10;4.47;;;;;;;11.26;65.04;100450.61;2187925;79;21537;-71
2022/09/07 01:18:04;;;;;;;8.23;4.35;;;;;;;11.34;65.04;100458.59;2185779;80;20995;-72
2022/09/07 01:21:28;;;;;;;9.48;4.33;;;;;;;11.31;65.08;100453.61;2184099;80;21031;-73
2022/09/07 01:25:14;;;;;;;9.20;4.62;;;;;;;11.31;65.08;100453.61;2189086;80;20983;-72
2022/09/07 01:28:33;;;;;;;8.30;4.37;;;;;;;11.29;64.86;100448.48;2163579;80;21027;-72
2022/09/07 01:31:46;;;;;;;8.33;4.47;;;;;;;11.07;64.87;100415.39;2187229;79;20959;-71
2022/09/07 01:34:52;;;;;;;8.08;4.40;;;;;;;11.27;64.92;100449.12;2191209;79;21536;-75
2022/09/07 01:38:24;;;;;;;6.42;3.83;;;;;;;11.22;65.01;100452.27;2189353;80;21546;-71
2022/09/07 01:41:45;;;;;;;7.53;4.50;;;;;;;11.18;65.26;100452.27;2185508;80;21026;-72
2022/09/07 01:45:01;;;;;;;11.90;4.22;;;;;;;11.13;65.27;100451.92;2191773;79;21029;-72
2022/09/07 01:48:07;;;;;;;8.03;4.22;;;;;;;11.02;64.99;100437.62;2167358;79;21610;-78
2022/09/07 01:51:11;;;;;;;7.60;4.30;;;;;;;10.92;65.59;100437.73;2191736;80;21090;-71
2022/09/07 01:54:30;;;;;;;7.62;4.08;;;;;;;10.88;65.49;100443.05;2190300;80;20966;-71
2022/09/07 01:57:39;;;;;;;11.38;4.70;;;;;;;10.88;65.49;100443.05;2191170;80;21122;-71
2022/09/07 02:00:46;;;;;;;6.62;4.17;;;;;;;10.73;65.57;100425.58;2180740;80;20970;-71
2022/09/07 02:04:10;;;;;;;10.60;4.22;;;;;;;10.73;65.57;100425.58;2185146;79;21021;-73
2022/09/07 02:07:29;;;;;;;8.70;3.87;;;;;;;10.88;65.54;100439.56;2192827;79;21537;-74
2022/09/07 02:10:40;;;;;;;7.28;3.67;;;;;;;10.88;65.54;100439.56;2186810;79;21017;-73
2022/09/07 02:13:58;;;;;;;5.87;3.98;;;;;;;10.89;65.42;100438.06;2188753;79;21010;-72
2022/09/07 02:17:08;;;;;;;5.58;3.35;;;;;;;10.90;65.40;100429.63;2152922;80;20997;-76
2022/09/07 02:20:17;;;;;;;7.78;4.05;;;;;;;10.88;65.40;100435.58;2184678;80;21085;-72
2022/09/07 02:23:23;;;;;;;5.65;3.40;;;;;;;10.88;65.33;100429.77;2187393;80;21042;-72
2022/09/07 02:26:27;;;;;;;6.47;3.92;;;;;;;10.76;65.14;100400.05;2188939;80;21071;-71
2022/09/07 02:29:28;;;;;;;6.78;3.70;;;;;;;10.91;65.20;100419.33;2183643;80;21073;-71
2022/09/07 02:32:30;;;;;;;6.92;3.65;;;;;;;10.93;65.08;100422.66;2189335;80;21105;-72
2022/09/07 02:35:32;;;;;;;8.05;3.22;;;;;;;10.94;65.03;100430.45;2186435;80;21563;-72
2022/09/07 02:38:35;;;;;;;6.37;3.37;;;;;;;10.98;64.90;100428.30;2183811;80;20927;-72
2022/09/07 02:41:40;;;;;;;6.08;3.40;;;;;;;10.99;64.81;100427.33;2189385;79;21041;-76
2022/09/07 02:44:44;;;;;;;4.90;3.02;;;;;;;10.96;64.30;100403.75;2191352;79;21529;-73
2022/09/07 02:48:16;;;;;;;5.10;3.00;;;;;;;10.96;64.30;100403.75;2194492;79;20974;-71
2022/09/07 02:51:34;;;;;;;5.42;3.20;;;;;;;11.12;64.27;100426.37;2180928;80;21026;-71
2022/09/07 02:55:20;;;;;;;7.45;3.37;;;;;;;11.02;64.15;100401.77;2187584;80;21486;-78
2022/09/07 02:58:29;;;;;;;6.47;3.08;;;;;;;11.19;64.28;100423.87;2183346;80;21624;-72
2022/09/07 03:02:12;;;;;;;4.53;3.10;;;;;;;11.20;63.94;100414.91;2187343;80;21584;-73
2022/09/07 03:05:53;;;;;;;4.40;2.67;;;;;;;11.24;63.98;100418.09;2187014;80;20955;-72
2022/09/07 03:08:58;;;;;;;5.85;3.12;;;;;;;11.27;63.75;100421.74;2183479;79;20994;-71
2022/09/07 03:12:03;;;;;;;4.10;2.65;;;;;;;11.28;63.43;100415.42;2188680;79;22915;-72
2022/09/07 03:15:05;;;;;;;6.70;3.47;;;;;;;11.30;63.22;100412.12;2191394;80;21073;-74
2022/09/07 03:18:06;;;;;;;17.37;2.72;;;;;;;11.30;62.75;100414.27;2189515;80;21033;-72
2022/09/07 03:21:14;;;;;;;7.50;2.85;;;;;;;11.19;62.15;100394.16;2187932;80;20991;-71
2022/09/07 03:24:15;;;;;;;8.15;3.33;;;;;;;11.17;61.73;100396.14;2192090;80;21041;-73
2022/09/07 03:27:16;;;;;;;5.80;2.60;;;;;;;11.17;61.73;100396.14;2162627;80;21510;-72
2022/09/07 03:30:17;;;;;;;7.70;3.22;;;;;;;11.29;61.77;100421.06;2183722;80;21465;-72
2022/09/07 03:33:18;;;;;;;6.50;3.02;;;;;;;11.27;61.73;100425.73;2165379;80;21504;-71
2022/09/07 03:36:19;;;;;;;4.45;2.42;;;;;;;11.22;61.64;100421.72;2185838;80;21039;-71
2022/09/07 03:39:22;;;;;;;4.80;2.58;;;;;;;11.20;61.23;100420.22;2188760;80;20955;-71
2022/09/07 03:42:23;;;;;;;5.42;2.62;;;;;;;11.13;61.00;100420.55;2193495;80;21034;-72
2022/09/07 03:45:24;;;;;;;8.53;3.00;;;;;;;11.13;61.00;100420.55;2191765;80;21022;-71
2022/09/07 03:48:32;;;;;;;4.08;2.52;;;;;;;11.08;61.21;100414.39;2184887;80;21061;-79
2022/09/07 03:51:33;;;;;;;4.97;2.37;;;;;;;11.03;61.21;100418.53;2184035;80;21073;-72
2022/09/07 03:54:34;;;;;;;5.00;2.52;;;;;;;10.96;61.16;100419.69;2187252;80;20995;-71
2022/09/07 03:57:35;;;;;;;5.42;2.52;;;;;;;10.75;61.03;100386.92;2188412;80;21494;-71
2022/09/07 04:00:40;;;;;;;7.62;2.98;;;;;;;10.67;61.44;100382.91;2186742;80;21041;-71
2022/09/07 04:03:43;;;;;;;8.35;3.45;;;;;;;10.67;61.44;100382.91;2186699;79;21006;-74
2022/09/07 04:06:44;;;;;;;3.55;2.20;;;;;;;10.72;61.30;100399.19;2181397;80;21031;-72
2022/09/07 04:09:45;;;;;;;3.77;2.70;;;;;;;10.67;61.41;100399.69;2187486;80;21078;-78
2022/09/07 04:12:46;;;;;;;8.85;2.30;;;;;;;10.62;61.49;100395.35;2186856;80;21074;-71
2022/09/07 04:15:48;;;;;;;6.40;2.75;;;;;;;10.60;61.47;100401.81;2159527;79;21065;-71
2022/09/07 04:18:50;;;;;;;4.25;2.30;;;;;;;10.57;61.63;100400.80;2182664;80;21583;-72
2022/09/07 04:21:51;;;;;;;4.55;2.40;;;;;;;10.54;61.63;100408.59;2192438;79;21556;-77
2022/09/07 04:24:52;;;;;;;4.40;2.40;;;;;;;10.51;61.60;100404.42;2181467;80;21014;-71
2022/09/07 04:27:55;;;;;;;9.30;2.87;;;;;;;10.49;61.67;100408.23;2187192;80;21038;-73
2022/09/07 04:31:01;;;;;;;3.72;2.55;;;;;;;10.47;61.76;100399.58;2203741;79;21053;-71
2022/09/07 04:34:04;;;;;;;4.53;2.45;;;;;;;10.45;61.79;100401.59;2179380;80;21528;-71
2022/09/07 04:37:05;;;;;;;3.70;2.42;;;;;;;10.44;61.87;100405.21;2156812;80;21006;-71
2022/09/07 04:40:08;;;;;;;5.40;2.40;;;;;;;10.45;61.95;100401.59;2192694;79;20999;-73
2022/09/07 04:43:11;;;;;;;5.53;2.37;;;;;;;10.43;61.92;100400.41;2200288;80;20998;-69
2022/09/07 04:46:28;;;;;;;5.95;2.72;;;;;;;10.43;61.95;100398.25;2189145;80;20991;-72
2022/09/07 04:49:31;;;;;;;3.27;2.30;;;;;;;10.44;62.04;100394.59;2191149;79;21552;-73
2022/09/07 04:52:32;;;;;;;5.92;2.55;;;;;;;10.43;62.12;100399.58;2189522;79;20986;-76
2022/09/07 04:55:33;;;;;;;5.58;2.55;;;;;;;10.47;62.10;100393.81;2164830;80;21019;-73
2022/09/07 04:58:35;;;;;;;5.92;2.50;;;;;;;10.52;62.26;100397.29;2193580;79;20988;-73
2022/09/07 05:01:36;;;;;;;3.37;2.33;;;;;;;10.55;62.29;100392.48;2161842;80;20987;-73
2022/09/07 05:04:37;;;;;;;10.38;3.02;;;;;;;10.61;62.21;100391.52;2164161;80;21046;-72
2022/09/07 05:07:39;;;;;;;4.83;2.60;;;;;;;10.65;62.09;100394.20;2188742;79;21019;-72
2022/09/07 05:10:43;;;;;;;6.65;2.77;;;;;;;10.73;62.18;100389.75;2191346;80;21469;-75
2022/09/07 05:13:44;;;;;;;7.97;2.70;;;;;;;10.96;62.13;100385.16;2190600;79;21018;-73
2022/09/07 05:16:45;;;;;;;5.65;2.40;;;;;;;11.28;62.03;100380.39;2193944;79;21046;-72
2022/09/07 05:19:47;;;;;;;7.35;2.98;;;;;;;11.61;61.66;100379.90;2188985;79;21030;-71
2022/09/07 05:22:48;;;;;;;7.28;2.62;;;;;;;11.94;61.22;100383.03;2196035;80;21519;-75
2022/09/07 05:25:49;;;;;;;4.83;3.05;;;;;;;12.23;60.99;100382.48;2166787;80;20991;-69
2022/09/07 05:28:50;;;;;;;5.40;2.90;;;;;;;12.53;60.16;100382.22;2190927;80;20952;-74
2022/09/07 05:31:52;;;;;;;4.22;3.00;;;;;;;12.76;59.36;100390.27;2160062;79;21534;-75
2022/09/07 05:34:53;;;;;;;5.72;2.77;;;;;;;12.93;58.53;100390.50;2166013;80;21073;-71
2022/09/07 05:37:54;;;;;;;6.47;3.05;;;;;;;13.16;59.05;100397.69;2196784;79;21022;-72
2022/09/07 05:40:55;;;;;;;9.30;2.47;;;;;;;13.40;58.43;100397.55;2192307;79;20991;-71
2022/09/07 05:43:59;;;;;;;3.55;2.42;;;;;;;13.63;57.70;100387.38;2194172;80;21579;-80
2022/09/07 05:47:01;;;;;;;6.20;3.12;;;;;;;13.79;57.48;100384.53;2187195;79;21033;-74
2022/09/07 05:50:06;;;;;;;6.75;2.80;;;;;;;13.95;57.29;100382.22;2196553;79;21052;-70
2022/09/07 05:53:09;;;;;;;5.72;2.70;;;;;;;14.07;56.45;100374.59;2185461;79;21723;-72
2022/09/07 05:56:11;;;;;;;5.12;2.90;;;;;;;14.17;55.92;100375.16;2197933;80;20994;-73
2022/09/07 05:59:14;;;;;;;6.42;2.98;;;;;;;14.30;55.76;100375.34;2192463;79;20967;-71
2022/09/07 06:02:15;;;;;;;4.22;2.80;;;;;;;14.53;55.94;100375.27;2159513;80;20998;-72
2022/09/07 06:05:16;;;;;;;5.42;3.10;;;;;;;14.74;55.72;100385.16;2197553;79;21110;-73
2022/09/07 06:08:17;;;;;;;11.70;3.02;;;;;;;14.90;54.90;100392.14;2190006;79;20960;-72
2022/09/07 06:11:23;;;;;;;5.92;3.47;;;;;;;14.95;54.04;100394.22;2186314;80;20971;-72
2022/09/07 06:14:24;;;;;;;13.18;5.03;;;;;;;15.06;53.49;100391.05;2162219;80;21010;-72
2022/09/07 06:17:32;;;;;;;11.85;4.85;;;;;;;15.16;53.63;100388.91;2188227;80;20943;-72
2022/09/07 06:20:33;;;;;;;12.40;4.37;;;;;;;15.40;53.51;100384.20;2191405;79;21077;-73
2022/09/07 06:23:36;;;;;;;8.65;4.50;;;;;;;15.52;52.81;100393.37;2192911;79;21021;-76
2022/09/07 06:26:37;;;;;;;6.05;3.65;;;;;;;15.57;52.59;100384.75;2166263;79;20990;-72
2022/09/07 06:29:38;;;;;;;8.55;3.95;;;;;;;15.77;52.55;100381.78;2185882;79;21121;-72
2022/09/07 06:32:39;;;;;;;9.98;3.60;;;;;;;16.08;52.79;100375.20;2194577;79;21062;-73
2022/09/07 06:35:40;;;;;;;9.25;3.80;;;;;;;16.32;52.84;100371.20;2190356;79;20994;-74
2022/09/07 06:38:42;;;;;;;8.45;3.37;;;;;;;16.56;51.90;100367.22;2201385;80;21010;-73
2022/09/07 06:41:43;;;;;;;10.75;3.60;;;;;;;16.80;52.54;100375.25;2187664;80;21025;-72
2022/09/07 06:44:46;;;;;;;5.40;3.00;;;;;;;17.23;52.37;100373.59;2169338;80;21494;-71
2022/09/07 06:47:53;;;;;;;4.78;3.10;;;;;;;17.66;51.52;100374.58;2202090;79;21471;-72
2022/09/07 06:51:05;;;;;;;7.65;3.10;;;;;;;17.68;49.91;100377.86;2189033;80;21037;-78
2022/09/07 06:54:06;;;;;;;9.10;3.52;;;;;;;17.72;50.36;100390.37;2188582;79;20979;-72
2022/09/07 06:57:08;;;;;;;7.85;3.00;;;;;;;18.01;50.22;100387.78;2185265;80;21010;-73
2022/09/07 07:00:10;;;;;;;7.03;3.75;;;;;;;18.39;50.14;100386.56;2187768;79;21498;-73
2022/09/07 07:03:13;;;;;;;10.03;3.67;;;;;;;18.52;48.91;100392.40;2183162;80;21106;-72
2022/09/07 07:06:15;;;;;;;12.33;3.42;;;;;;;18.68;48.83;100394.61;2180618;80;21034;-72
2022/09/07 07:09:16;;;;;;;6.75;3.33;;;;;;;18.78;48.72;100391.00;2183758;80;21044;-75
2022/09/07 07:12:17;;;;;;;8.28;3.20;;;;;;;19.07;47.27;100389.30;2188067;80;21002;-77
2022/09/07 07:15:18;;;;;;;8.95;4.05;;;;;;;19.35;48.04;100383.00;2191048;80;21608;-73
2022/09/07 07:18:19;;;;;;;10.20;3.40;;;;;;;19.46;46.98;100376.92;2187925;80;21023;-73
2022/09/07 07:21:21;;;;;;;8.48;4.08;;;;;;;19.41;47.65;100371.89;2181177;80;21037;-75
2022/09/07 07:24:22;;;;;;;7.65;3.70;;;;;;;19.63;47.33;100369.66;2186829;79;21001;-73
2022/09/07 07:27:23;;;;;;;8.98;3.62;;;;;;;19.63;47.70;100371.81;2165168;80;20986;-73
2022/09/07 07:30:29;;;;;;;5.00;2.92;;;;;;;19.51;46.61;100371.39;2189930;79;21026;-73
2022/09/07 07:33:33;;;;;;;5.62;3.55;;;;;;;19.49;46.77;100366.24;2185263;79;20990;-73
2022/09/07 07:36:34;;;;;;;7.03;3.77;;;;;;;19.49;46.30;100367.06;2184377;80;21520;-77
2022/09/07 07:39:35;;;;;;;10.18;3.87;;;;;;;19.61;46.75;100371.20;2189928;79;20964;-73
2022/09/07 07:42:38;;;;;;;7.90;3.10;;;;;;;20.01;46.39;100373.56;2186066;79;20991;-76
2022/09/07 07:45:43;;;;;;;10.00;4.20;;;;;;;20.14;45.07;100365.87;2189217;80;21040;-77
2022/09/07 07:48:47;;;;;;;8.48;3.62;;;;;;;19.66;44.78;100361.16;2189506;79;21061;-73
2022/09/07 07:51:49;;;;;;;6.15;3.45;;;;;;;19.26;45.39;100363.62;2184334;79;21061;-74
2022/09/07 07:54:50;;;;;;;10.13;4.08;;;;;;;19.14;45.59;100365.33;2184494;80;21831;-75
2022/09/07 07:57:51;;;;;;;9.65;3.50;;;;;;;19.16;45.90;100359.23;2185412;80;21010;-73
2022/09/07 08:00:53;;;;;;;5.05;3.55;;;;;;;19.30;45.90;100354.58;2189060;79;21010;-73
2022/09/07 08:03:54;;;;;;;9.30;3.92;;;;;;;19.47;46.39;100358.38;2185577;79;21076;-75
2022/09/07 08:06:56;;;;;;;7.42;3.72;;;;;;;19.61;45.98;100355.05;2191008;79;21519;-75
2022/09/07 08:09:57;;;;;;;11.12;5.00;;;;;;;19.64;46.20;100354.61;2190160;80;21603;-77
2022/09/07 08:12:58;;;;;;;8.83;5.25;;;;;;;19.83;46.18;100359.55;2188096;80;21524;-76
2022/09/07 08:16:00;;;;;;;16.48;6.08;;;;;;;20.39;46.77;100361.77;2184152;79;20981;-74
2022/09/07 08:19:01;;;;;;;13.50;6.37;;;;;;;20.44;45.80;100365.11;2184591;79;21020;-74
2022/09/07 08:22:02;;;;;;;11.10;6.55;;;;;;;20.37;45.42;100363.33;2190081;79;20955;-73
2022/09/07 08:25:05;;;;;;;9.95;6.12;;;;;;;20.37;46.34;100370.06;2187084;79;21463;-74
2022/09/07 08:28:07;;;;;;;12.03;6.53;;;;;;;20.68;45.97;100366.11;2189215;80;21510;-73
2022/09/07 08:31:12;;;;;;;13.75;6.25;;;;;;;20.76;45.92;100363.91;2185920;79;21513;-74
2022/09/07 08:34:13;;;;;;;21.07;7.65;;;;;;;21.03;45.86;100354.94;2189566;79;21007;-74
2022/09/07 08:37:14;;;;;;;13.35;6.33;;;;;;;21.06;45.40;100363.07;2180724;79;20920;-74
2022/09/07 08:40:17;;;;;;;9.90;5.42;;;;;;;21.22;45.44;100354.86;2186371;80;21619;-74
2022/09/07 08:43:46;;;;;;;11.90;5.97;;;;;;;21.38;44.62;100352.87;2191929;79;21149;-76
2022/09/07 08:47:08;;;;;;;14.03;5.12;;;;;;;21.51;44.64;100352.36;2188785;80;21041;-76
2022/09/07 08:50:23;;;;;;;6.83;5.17;;;;;;;21.51;44.91;100352.36;2187578;79;21618;-75
2022/09/07 08:53:25;;;;;;;8.83;4.80;;;;;;;21.49;43.67;100348.02;2162374;80;21033;-75
2022/09/07 08:56:37;;;;;;;7.83;4.53;;;;;;;21.32;43.02;100335.42;2184941;80;20983;-75
2022/09/07 08:59:43;;;;;;;11.22;4.72;;;;;;;21.22;43.74;100329.22;2190162;80;21030;-74
2022/09/07 09:02:44;;;;;;;7.87;4.53;;;;;;;21.34;43.88;100328.70;2190117;79;21443;-76
2022/09/07 09:06:02;;;;;;;9.95;4.40;;;;;;;21.48;43.84;100325.30;2161932;80;21493;-74
2022/09/07 09:09:33;;;;;;;8.90;4.75;;;;;;;21.66;44.17;100318.98;2184777;79;21702;-75
2022/09/07 09:12:56;;;;;;;8.98;4.35;;;;;;;21.74;42.89;100314.59;2069219;83;21018;-74
2022/09/07 09:16:20;;;;;;;11.93;4.75;;;;;;;21.93;44.33;100318.80;2079869;84;21047;-74
2022/09/07 09:19:51;;;;;;;9.08;4.35;;;;;;;21.98;43.55;100308.61;2192027;80;21533;-75
2022/09/07 09:22:58;;;;;;;6.37;4.10;;;;;;;22.01;43.01;100304.08;2197588;79;21552;-73
2022/09/07 09:26:22;;;;;;;7.30;4.25;;;;;;;22.15;42.73;100311.41;2196370;79;21509;-73
2022/09/07 09:29:25;;;;;;;5.47;4.00;;;;;;;22.33;43.34;100312.64;2195205;79;20971;-74
2022/09/07 09:32:38;;;;;;;11.25;4.53;;;;;;;22.52;42.40;100311.09;2151482;81;20980;-74
2022/09/07 09:35:40;;;;;;;6.97;4.05;;;;;;;22.62;42.67;100308.59;2117494;82;21063;-73
2022/09/07 09:38:42;;;;;;;7.65;3.83;;;;;;;22.78;41.59;100318.64;2130633;81;21086;-80
2022/09/07 09:41:43;;;;;;;6.40;3.75;;;;;;;22.64;41.63;100306.98;2128759;81;21078;-74
2022/09/07 09:44:45;;;;;;;9.35;4.00;;;;;;;22.72;42.82;100302.03;2128871;81;20991;-77
2022/09/07 09:47:52;;;;;;;9.25;4.28;;;;;;;22.81;41.18;100296.52;2116148;82;20999;-73
2022/09/07 09:50:56;;;;;;;8.53;3.70;;;;;;;22.61;41.36;100294.80;2135020;81;21026;-73
2022/09/07 09:54:04;;;;;;;4.62;3.62;;;;;;;22.70;42.18;100290.63;2131976;82;22175;-74
2022/09/07 09:57:16;;;;;;;9.45;3.40;;;;;;;22.84;41.36;100288.45;2136847;81;20992;-75
2022/09/07 10:00:21;;;;;;;6.67;3.60;;;;;;;22.90;40.20;100291.52;2126398;81;21169;-73
2022/09/07 10:03:28;;;;;;;6.80;3.50;;;;;;;22.76;41.00;100291.54;2132797;81;21067;-74
2022/09/07 10:06:28;;;;;;;9.78;4.00;;;;;;;22.91;41.38;100279.62;2110984;83;21022;-73
2022/09/07 10:09:39;;;;;;;5.50;3.40;;;;;;;23.08;41.19;100274.26;2134238;81;21006;-74
2022/09/07 10:12:45;;;;;;;6.75;3.80;;;;;;;23.15;40.82;100272.77;2127930;81;21042;-73
2022/09/07 10:15:55;;;;;;;7.37;3.77;;;;;;;23.02;40.38;100269.30;2135472;81;21530;-73
2022/09/07 10:18:58;;;;;;;8.50;3.58;;;;;;;23.06;40.55;100261.53;2136404;81;21500;-75
2022/09/07 10:22:23;;;;;;;9.55;3.67;;;;;;;22.97;40.56;100264.33;2107190;83;21027;-73
2022/09/07 10:25:40;;;;;;;8.43;3.67;;;;;;;22.93;39.98;100256.40;2125088;82;20976;-76
2022/09/07 10:28:42;;;;;;;6.15;3.87;;;;;;;22.98;40.90;100257.87;2131684;81;21574;-76
2022/09/07 10:31:52;;;;;;;4.67;3.37;;;;;;;23.30;40.95;100257.29;2133571;81;21008;-73
2022/09/07 10:35:43;;;;;;;8.60;3.67;;;;;;;23.71;41.28;100248.72;2123444;81;21090;-75
2022/09/07 10:38:58;;;;;;;6.00;3.77;;;;;;;23.83;40.64;100265.39;2125877;83;21493;-73
2022/09/07 10:42:20;;;;;;;6.75;3.50;;;;;;;23.99;40.38;100263.17;2127556;81;21035;-73
2022/09/07 10:45:41;;;;;;;5.90;3.45;;;;;;;24.10;39.94;100269.00;2132920;81;21474;-75
2022/09/07 10:49:26;;;;;;;6.17;3.52;;;;;;;24.20;38.96;100264.77;2132881;81;21047;-73
2022/09/07 10:52:58;;;;;;;5.92;3.90;;;;;;;24.37;39.87;100263.60;2135442;81;20991;-74
2022/09/07 10:56:07;;;;;;;10.65;3.67;;;;;;;24.41;38.49;100249.53;2130160;83;21063;-73
2022/09/07 10:59:34;;;;;;;8.60;3.47;;;;;;;24.26;39.33;100252.36;2128124;83;21530;-73
2022/09/07 11:02:58;;;;;;;4.58;3.40;;;;;;;24.09;38.60;100252.98;2131161;81;21055;-74
2022/09/07 11:06:31;;;;;;;6.72;4.00;;;;;;;23.87;38.79;100239.42;2133689;81;21074;-74
2022/09/07 11:09:52;;;;;;;5.92;3.83;;;;;;;23.89;40.15;100242.70;2132773;81;20971;-73
2022/09/07 11:12:58;;;;;;;6.70;4.12;;;;;;;24.14;39.59;100252.50;2129651;81;21056;-75
2022/09/07 11:16:05;;;;;;;7.95;3.92;;;;;;;24.16;39.45;100254.97;2132723;82;21518;-73
2022/09/07 11:19:20;;;;;;;4.47;3.40;;;;;;;24.20;39.98;100247.95;2131640;82;21023;-74
2022/09/07 11:22:41;;;;;;;4.67;3.12;;;;;;;24.40;39.64;100241.94;2134460;81;21054;-73
2022/09/07 11:26:28;;;;;;;4.90;3.08;;;;;;;24.35;39.21;100244.59;2135021;81;21031;-73
2022/09/07 11:29:50;;;;;;;7.37;3.75;;;;;;;24.22;39.70;100245.01;2133367;83;21565;-78
2022/09/07 11:33:15;;;;;;;5.58;3.40;;;;;;;24.19;39.49;100246.84;2134992;81;21006;-74
2022/09/07 11:36:18;;;;;;;4.08;3.50;;;;;;;24.27;39.37;100239.62;2125511;81;21010;-73
2022/09/07 11:40:09;;;;;;;4.40;3.10;;;;;;;24.19;38.77;100236.00;2129565;81;21473;-74
2022/09/07 11:43:30;;;;;;;5.37;3.77;;;;;;;24.06;39.24;100233.97;2116596;82;21468;-73
2022/09/07 11:46:50;;;;;;;5.50;3.65;;;;;;;24.11;39.31;100225.91;2134329;81;21076;-73
2022/09/07 11:49:54;;;;;;;7.67;3.60;;;;;;;24.42;39.60;100222.72;2130329;81;21545;-73
2022/09/07 11:53:03;;;;;;;7.97;4.00;;;;;;;24.57;39.69;100229.12;2125169;82;21035;-73
2022/09/07 11:56:13;;;;;;;5.53;3.72;;;;;;;24.86;39.05;100219.87;2126823;82;21099;-75
2022/09/07 11:59:55;;;;;;;5.05;3.83;;;;;;;24.86;39.05;100219.87;2110723;83;20992;-72
2022/09/07 12:03:13;;;;;;;6.22;3.90;;;;;;;24.95;39.53;100219.70;2133698;81;21534;-71
2022/09/07 12:07:03;;;;;;;9.88;3.30;;;;;;;24.82;38.83;100223.66;2126435;82;21054;-72
2022/09/07 12:10:32;;;;;;;6.50;3.52;;;;;;;24.80;39.33;100216.30;2149769;81;22060;-73
2022/09/07 12:14:11;;;;;;;5.97;3.93;;;;;;;24.88;38.50;100214.47;2130276;81;21015;-72
2022/09/07 12:17:38;;;;;;;4.45;3.30;;;;;;;24.66;38.97;100209.13;2137754;81;21167;-75
2022/09/07 12:20:43;;;;;;;6.80;3.90;;;;;;;24.57;39.59;100209.32;2121992;82;21030;-76
2022/09/07 12:23:46;;;;;;;7.00;3.50;;;;;;;24.47;40.08;100191.07;2155458;80;20995;-77
2022/09/07 12:26:53;;;;;;;9.35;3.80;;;;;;;24.52;40.23;100185.67;2181474;80;20990;-74
2022/09/07 12:30:08;;;;;;;6.60;3.75;;;;;;;24.60;40.10;100193.34;2189155;80;21003;-75
2022/09/07 12:33:23;;;;;;;6.22;3.87;;;;;;;24.62;40.17;100181.44;2184932;80;20995;-75
2022/09/07 12:36:33;;;;;;;10.45;3.35;;;;;;;24.62;39.98;100181.44;2153051;80;21590;-76
2022/09/07 12:39:36;;;;;;;5.80;3.60;;;;;;;24.48;40.62;100183.20;2184372;80;21487;-74
2022/09/07 12:42:37;;;;;;;7.25;4.30;;;;;;;24.18;40.55;100178.80;2159953;80;21014;-74
2022/09/07 12:45:44;;;;;;;7.65;3.47;;;;;;;23.97;41.12;100181.30;2190038;79;21534;-73
2022/09/07 12:49:30;;;;;;;3.77;3.17;;;;;;;23.98;41.09;100172.09;2185703;80;21078;-73
2022/09/07 12:52:55;;;;;;;6.50;4.03;;;;;;;24.24;41.24;100168.29;2184434;80;21387;-74
2022/09/07 12:56:44;;;;;;;4.80;3.37;;;;;;;24.45;41.27;100159.86;2186587;80;21002;-75
2022/09/07 13:00:19;;;;;;;4.75;3.60;;;;;;;24.64;41.61;100161.63;2188811;80;21085;-75
2022/09/07 13:03:49;;;;;;;9.65;3.70;;;;;;;24.63;40.47;100158.10;2191886;79;21000;-73
2022/09/07 13:07:16;;;;;;;4.80;3.57;;;;;;;24.45;40.76;100160.67;2186523;80;21038;-74
2022/09/07 13:10:36;;;;;;;6.80;3.52;;;;;;;24.42;40.79;100152.21;2164820;80;21060;-76
2022/09/07 13:13:37;;;;;;;;;;;;;;;24.44;40.94;100153.63;2165902;80;21090;-74
2022/09/07 13:16:41;;;;;;;4.33;3.72;;;;;;;24.51;40.53;100152.86;2185415;80;20136;-74
2022/09/07 13:19:56;;;;;;;4.85;3.92;;;;;;;24.59;40.92;100141.53;2160167;80;21568;-74
2022/09/07 13:23:22;;;;;;;5.33;3.45;;;;;;;24.76;41.53;100137.33;2182995;80;21041;-74
2022/09/07 13:27:02;;;;;;;6.30;4.05;;;;;;;24.79;41.59;100134.63;2177907;80;20963;-74
2022/09/07 13:30:08;;;;;;;4.20;3.80;;;;;;;24.76;41.04;100134.61;2187219;80;20983;-74
2022/09/07 13:33:31;;;;;;;4.90;3.72;;;;;;;24.85;41.34;100134.12;2182598;80;20952;-74
2022/09/07 13:36:46;;;;;;;6.22;3.98;;;;;;;24.90;41.51;100121.41;2186534;80;21596;-74
2022/09/07 13:39:54;;;;;;;5.60;3.62;;;;;;;24.84;41.29;100126.53;2189847;80;20927;-74
2022/09/07 13:42:56;;;;;;;4.58;3.50;;;;;;;24.87;41.98;100120.58;2183502;79;21022;-74
2022/09/07 13:46:01;;;;;;;4.80;3.58;;;;;;;24.89;41.77;100115.72;2187111;80;21550;-74
2022/09/07 13:49:50;;;;;;;6.58;3.98;;;;;;;24.85;41.79;100116.49;2188464;79;21560;-74
2022/09/07 13:53:06;;;;;;;4.53;3.50;;;;;;;24.71;41.58;100120.19;2187835;79;21734;-76
2022/09/07 13:56:20;;;;;;;6.17;3.95;;;;;;;24.69;41.82;100115.55;2184360;79;20958;-74
2022/09/07 13:59:30;;;;;;;4.42;3.22;;;;;;;24.54;42.15;100113.55;2183287;79;21536;-74
2022/09/07 14:02:33;;;;;;;7.83;3.98;;;;;;;24.44;42.30;100114.81;2183701;79;21509;-77
2022/09/07 14:05:35;;;;;;;6.40;3.70;;;;;;;24.45;42.21;100111.05;2192296;79;20967;-74
2022/09/07 14:08:36;;;;;;;6.33;3.92;;;;;;;24.62;42.54;100112.27;2183179;80;21093;-75
2022/09/07 14:11:43;;;;;;;8.35;3.47;;;;;;;24.62;42.02;100106.84;2186137;79;20982;-74
2022/09/07 14:14:45;;;;;;;6.62;3.83;;;;;;;24.54;42.37;100103.52;2181147;79;20970;-74
2022/09/07 14:17:48;;;;;;;8.23;4.12;;;;;;;24.48;42.69;100108.63;2184517;79;20990;-75
2022/09/07 14:20:52;;;;;;;7.42;3.87;;;;;;;24.48;42.33;100114.59;2185839;80;21515;-74
2022/09/07 14:23:54;;;;;;;5.92;3.83;;;;;;;24.38;42.38;100103.92;2157390;80;21584;-75
2022/09/07 14:26:56;;;;;;;9.00;4.60;;;;;;;24.31;42.72;100106.56;2189371;80;21615;-74
2022/09/07 14:30:25;;;;;;;8.08;4.05;;;;;;;24.27;42.70;100106.77;2175857;80;21089;-80
2022/09/07 14:33:27;;;;;;;5.65;3.60;;;;;;;24.19;43.00;100096.40;2190035;80;21019;-74
2022/09/07 14:36:35;;;;;;;5.67;3.62;;;;;;;24.26;42.91;100094.30;2185199;80;21033;-75
2022/09/07 14:39:40;;;;;;;4.08;3.67;;;;;;;24.27;43.30;100095.93;2161840;80;20966;-74